createdAt,value
2022-10-07T00:01:15.359Z,99.90
2022-10-07T00:03:44.009Z,99.90
2022-10-07T00:06:15.821Z,99.90
2022-10-07T00:08:46.461Z,99.90
2022-10-07T00:11:15.979Z,99.90
2022-10-07T00:13:45.960Z,99.90
2022-10-07T00:16:17.212Z,99.90
2022-10-07T00:18:45.857Z,99.90
2022-10-07T00:21:17.740Z,99.90
2022-10-07T00:23:47.187Z,99.90
2022-10-07T00:26:17.035Z,99.90
2022-10-07T00:28:45.577Z,99.90
2022-10-07T00:31:15.455Z,99.90
2022-10-07T00:33:45.024Z,99.90
2022-10-07T00:36:16.660Z,99.90
2022-10-07T00:38:48.862Z,99.90
2022-10-07T00:41:20.765Z,99.90
2022-10-07T00:43:49.788Z,99.90
2022-10-07T00:46:29.892Z,99.90
2022-10-07T00:48:59.868Z,99.90
2022-10-07T00:51:31.172Z,99.90
2022-10-07T00:53:59.080Z,99.90
2022-10-07T00:56:29.409Z,99.90
2022-10-07T00:59:00.040Z,99.90
2022-10-07T01:01:28.576Z,99.90
2022-10-07T01:03:59.023Z,99.90
2022-10-07T01:06:28.906Z,99.90
2022-10-07T01:08:58.432Z,99.90
2022-10-07T01:11:49.414Z,99.90
2022-10-07T01:14:29.432Z,99.90
2022-10-07T01:17:02.978Z,99.90
2022-10-07T01:19:48.098Z,99.90
2022-10-07T01:22:29.991Z,99.90
2022-10-07T01:25:14.969Z,99.90
2022-10-07T01:27:50.435Z,99.90
2022-10-07T01:30:19.466Z,99.90
2022-10-07T01:32:54.155Z,99.90
2022-10-07T01:35:26.528Z,99.90
2022-10-07T01:37:57.403Z,99.90
2022-10-07T01:40:30.997Z,99.90
2022-10-07T01:43:00.851Z,99.90
2022-10-07T01:45:32.669Z,99.90
2022-10-07T01:48:01.702Z,99.90
2022-10-07T01:50:32.608Z,99.90
2022-10-07T01:53:15.637Z,99.90
2022-10-07T01:55:56.789Z,99.90
2022-10-07T01:58:37.665Z,99.90
2022-10-07T02:01:16.476Z,99.90
2022-10-07T02:04:08.098Z,99.90
2022-10-07T02:06:44.579Z,99.90
2022-10-07T02:09:26.736Z,99.90
2022-10-07T02:12:04.430Z,99.90
2022-10-07T02:14:41.663Z,99.90
2022-10-07T02:17:17.582Z,99.90
2022-10-07T02:19:50.009Z,99.90
2022-10-07T02:22:20.296Z,99.90
2022-10-07T02:24:53.480Z,99.90
2022-10-07T02:27:23.733Z,99.90
2022-10-07T02:29:57.323Z,99.90
2022-10-07T02:32:28.444Z,99.90
2022-10-07T02:35:04.094Z,99.90
2022-10-07T02:37:37.932Z,99.90
2022-10-07T02:40:12.101Z,99.90
2022-10-07T02:42:48.163Z,99.90
2022-10-07T02:45:26.771Z,99.90
2022-10-07T02:47:59.095Z,99.90
2022-10-07T02:50:31.956Z,99.90
2022-10-07T02:53:03.081Z,99.90
2022-10-07T02:55:33.078Z,99.90
2022-10-07T02:58:05.077Z,99.90
2022-10-07T03:00:40.547Z,99.90
2022-10-07T03:03:09.101Z,99.90
2022-10-07T03:05:38.174Z,99.90
2022-10-07T03:08:10.207Z,99.90
2022-10-07T03:10:41.038Z,99.90
2022-10-07T03:13:09.179Z,99.90
2022-10-07T03:15:42.616Z,99.90
2022-10-07T03:18:26.960Z,99.90
2022-10-07T03:20:56.248Z,99.90
2022-10-07T03:23:25.207Z,99.90
2022-10-07T03:25:55.886Z,99.90
2022-10-07T03:28:26.586Z,99.90
2022-10-07T03:31:04.927Z,99.90
2022-10-07T03:33:33.285Z,99.90
2022-10-07T03:36:01.581Z,99.90
2022-10-07T03:38:32.685Z,99.90
2022-10-07T03:41:02.024Z,99.90
2022-10-07T03:43:30.192Z,99.90
2022-10-07T03:46:02.344Z,99.90
2022-10-07T03:48:32.068Z,99.90
2022-10-07T03:51:01.124Z,99.90
2022-10-07T03:53:31.014Z,99.90
2022-10-07T03:56:10.214Z,99.90
2022-10-07T03:58:43.066Z,99.90
2022-10-07T04:01:20.281Z,99.90
2022-10-07T04:03:50.892Z,99.90
2022-10-07T04:06:23.694Z,99.90
2022-10-07T04:09:00.190Z,99.90
2022-10-07T04:11:38.141Z,99.90
2022-10-07T04:14:24.284Z,99.90
2022-10-07T04:17:01.620Z,99.90
2022-10-07T04:19:47.578Z,99.90
2022-10-07T04:22:25.619Z,99.90
2022-10-07T04:25:10.980Z,99.90
2022-10-07T04:27:51.527Z,99.90
2022-10-07T04:30:25.072Z,99.90
2022-10-07T04:32:56.903Z,99.90
2022-10-07T04:35:44.990Z,99.90
2022-10-07T04:38:20.300Z,99.90
2022-10-07T04:40:53.550Z,99.90
2022-10-07T04:43:34.902Z,99.90
2022-10-07T04:46:10.900Z,99.90
2022-10-07T04:48:51.933Z,99.90
2022-10-07T04:51:30.615Z,99.90
2022-10-07T04:54:02.439Z,99.90
2022-10-07T04:56:38.036Z,99.90
2022-10-07T04:59:07.287Z,99.90
2022-10-07T05:01:55.549Z,99.90
2022-10-07T05:04:26.833Z,99.90
2022-10-07T05:06:56.508Z,99.90
2022-10-07T05:09:25.369Z,99.90
2022-10-07T05:11:56.335Z,99.90
2022-10-07T05:14:25.993Z,99.90
2022-10-07T05:16:54.701Z,99.90
2022-10-07T05:19:39.320Z,99.90
2022-10-07T05:22:09.403Z,99.90
2022-10-07T05:24:44.578Z,99.90
2022-10-07T05:27:15.450Z,99.90
2022-10-07T05:29:46.142Z,99.90
2022-10-07T05:32:24.641Z,99.90
2022-10-07T05:34:58.729Z,99.90
2022-10-07T05:37:32.993Z,99.90
2022-10-07T05:40:09.329Z,99.90
2022-10-07T05:42:38.707Z,99.90
2022-10-07T05:45:18.012Z,99.90
2022-10-07T05:47:59.741Z,99.90
2022-10-07T05:50:32.915Z,99.90
2022-10-07T05:53:06.919Z,99.90
2022-10-07T05:55:40.175Z,99.90
2022-10-07T05:58:12.064Z,99.90
2022-10-07T06:00:44.559Z,99.90
2022-10-07T06:03:16.123Z,99.90
2022-10-07T06:05:48.738Z,99.90
2022-10-07T06:08:19.513Z,99.90
2022-10-07T06:11:05.631Z,99.90
2022-10-07T06:13:34.950Z,99.90
2022-10-07T06:16:04.512Z,99.90
2022-10-07T06:18:33.306Z,99.90
2022-10-07T06:21:03.135Z,99.90
2022-10-07T06:23:34.188Z,99.90
2022-10-07T06:26:04.179Z,99.90
2022-10-07T06:28:34.132Z,99.90
2022-10-07T06:31:06.002Z,99.90
2022-10-07T06:33:37.350Z,99.90
2022-10-07T06:36:07.209Z,99.90
2022-10-07T06:38:37.699Z,99.90
2022-10-07T06:41:07.117Z,99.90
2022-10-07T06:43:37.601Z,99.90
2022-10-07T06:46:08.960Z,99.90
2022-10-07T06:48:38.133Z,99.90
2022-10-07T06:51:06.934Z,99.90
2022-10-07T06:53:37.007Z,99.90
2022-10-07T06:56:06.702Z,99.90
2022-10-07T06:58:36.801Z,99.90
2022-10-07T07:01:08.482Z,99.90
2022-10-07T07:03:43.207Z,99.90
2022-10-07T07:06:12.331Z,99.90
2022-10-07T07:08:42.265Z,99.90
2022-10-07T07:11:26.899Z,99.90
2022-10-07T07:13:55.995Z,99.90
2022-10-07T07:16:25.454Z,99.90
2022-10-07T07:18:55.318Z,99.90
2022-10-07T07:21:28.814Z,99.90
2022-10-07T07:24:00.148Z,99.90
2022-10-07T07:26:29.898Z,99.90
2022-10-07T07:29:00.033Z,99.90
2022-10-07T07:31:30.282Z,99.90
2022-10-07T07:34:00.764Z,99.90
2022-10-07T07:36:34.440Z,99.90
2022-10-07T07:39:13.925Z,99.90
2022-10-07T07:41:47.180Z,99.90
2022-10-07T07:44:19.459Z,99.90
2022-10-07T07:46:51.414Z,99.90
2022-10-07T07:49:20.411Z,99.90
2022-10-07T07:51:52.357Z,99.90
2022-10-07T07:54:27.647Z,99.90
2022-10-07T07:57:00.282Z,99.90
2022-10-07T07:59:29.272Z,99.90
2022-10-07T08:01:58.546Z,99.90
2022-10-07T08:04:27.433Z,99.90
2022-10-07T08:06:56.888Z,99.90
2022-10-07T08:09:27.017Z,99.90
2022-10-07T08:11:57.733Z,99.90
2022-10-07T08:14:27.063Z,99.90
2022-10-07T08:16:58.116Z,99.90
2022-10-07T08:19:26.647Z,99.90
2022-10-07T08:21:55.744Z,99.90
2022-10-07T08:24:25.138Z,99.90
2022-10-07T08:26:54.975Z,99.90
2022-10-07T08:29:26.329Z,99.90
2022-10-07T08:31:54.792Z,99.90
2022-10-07T08:34:23.253Z,99.90
2022-10-07T08:36:52.389Z,99.90
2022-10-07T08:39:21.144Z,99.90
2022-10-07T08:42:02.522Z,99.90
2022-10-07T08:44:34.246Z,99.90
2022-10-07T08:47:08.524Z,99.90
2022-10-07T08:49:45.084Z,99.90
2022-10-07T08:52:35.218Z,99.90
2022-10-07T08:55:04.248Z,99.90
2022-10-07T08:57:53.661Z,99.90
2022-10-07T09:00:25.042Z,99.90
2022-10-07T09:03:09.897Z,99.90
2022-10-07T09:05:44.669Z,99.90
2022-10-07T09:08:20.971Z,99.90
2022-10-07T09:10:53.466Z,99.90
2022-10-07T09:13:26.353Z,99.90
2022-10-07T09:16:11.509Z,99.90
2022-10-07T09:18:43.632Z,99.90
2022-10-07T09:21:17.216Z,99.90
2022-10-07T09:23:50.724Z,99.90
2022-10-07T09:26:21.305Z,99.90
2022-10-07T09:29:02.442Z,99.90
2022-10-07T09:31:36.658Z,99.90
2022-10-07T09:34:05.602Z,99.90
2022-10-07T09:36:33.755Z,99.90
2022-10-07T09:39:23.960Z,99.90
2022-10-07T09:41:52.968Z,99.90
2022-10-07T09:44:28.089Z,99.90
2022-10-07T09:46:59.942Z,99.90
2022-10-07T09:49:46.742Z,99.90
2022-10-07T09:52:23.329Z,99.90
2022-10-07T09:54:56.864Z,99.90
2022-10-07T09:57:35.378Z,99.90
2022-10-07T10:00:26.494Z,99.90
2022-10-07T10:03:05.790Z,85.50
2022-10-07T10:05:35.560Z,56.40
2022-10-07T10:08:07.241Z,49.50
2022-10-07T10:10:37.925Z,39.10
2022-10-07T10:13:08.409Z,36.70
2022-10-07T10:15:47.364Z,40.80
2022-10-07T10:18:32.426Z,40.50
2022-10-07T10:21:21.436Z,17.90
2022-10-07T10:23:53.599Z,30.00
2022-10-07T10:26:38.105Z,24.70
2022-10-07T10:29:23.956Z,12.70
2022-10-07T10:32:16.886Z,1.00
2022-10-07T10:34:54.293Z,1.00
2022-10-07T10:37:27.324Z,4.40
2022-10-07T10:40:04.122Z,16.70
2022-10-07T10:42:46.111Z,15.30
2022-10-07T10:45:27.913Z,15.60
2022-10-07T10:48:17.697Z,20.00
2022-10-07T10:50:55.045Z,23.90
2022-10-07T10:53:36.364Z,19.50
2022-10-07T10:56:24.263Z,16.80
2022-10-07T10:59:18.523Z,28.50
2022-10-07T11:01:50.882Z,20.20
2022-10-07T11:04:35.689Z,13.80
2022-10-07T11:07:12.507Z,13.50
2022-10-07T11:09:47.378Z,12.00
2022-10-07T11:12:27.715Z,12.40
2022-10-07T11:15:09.961Z,11.80
2022-10-07T11:17:38.824Z,13.40
2022-10-07T11:20:21.379Z,9.00
2022-10-07T11:22:59.748Z,7.90
2022-10-07T11:25:33.718Z,5.80
2022-10-07T11:28:12.760Z,7.10
2022-10-07T11:30:49.365Z,5.00
2022-10-07T11:33:29.224Z,1.00
2022-10-07T11:36:10.016Z,1.00
2022-10-07T11:38:41.655Z,1.00
2022-10-07T11:41:18.581Z,1.00
2022-10-07T11:43:49.002Z,1.00
2022-10-07T11:46:25.139Z,1.00
2022-10-07T11:49:02.807Z,1.00
2022-10-07T11:51:43.058Z,1.00
2022-10-07T11:54:21.212Z,1.00
2022-10-07T11:56:56.310Z,1.00
2022-10-07T11:59:48.492Z,1.00
2022-10-07T12:02:45.279Z,1.00
2022-10-07T12:05:59.358Z,1.00
2022-10-07T12:08:49.197Z,1.00
2022-10-07T12:11:52.202Z,1.00
2022-10-07T12:14:36.468Z,1.00
2022-10-07T12:17:28.310Z,1.00
2022-10-07T12:20:42.961Z,1.00
2022-10-07T12:23:42.711Z,1.00
2022-10-07T12:26:50.408Z,1.00
2022-10-07T12:29:45.202Z,1.00
2022-10-07T12:32:51.997Z,1.00
2022-10-07T12:35:50.011Z,1.00
2022-10-07T12:38:34.339Z,1.00
2022-10-07T12:41:20.404Z,1.00
2022-10-07T12:43:53.954Z,1.00
2022-10-07T12:46:24.350Z,1.00
2022-10-07T12:49:01.931Z,1.00
2022-10-07T12:51:39.275Z,1.00
2022-10-07T12:54:16.175Z,1.00
2022-10-07T12:56:46.600Z,1.00
2022-10-07T12:59:49.589Z,1.00
2022-10-07T13:02:51.711Z,1.00
2022-10-07T13:05:54.265Z,1.00
2022-10-07T13:09:03.010Z,1.00
2022-10-07T13:12:16.590Z,1.00
2022-10-07T13:14:56.058Z,1.00
2022-10-07T13:17:36.860Z,1.00
2022-10-07T13:20:17.910Z,1.00
2022-10-07T13:22:48.895Z,1.00
2022-10-07T13:25:20.349Z,1.00
2022-10-07T13:27:55.174Z,1.00
2022-10-07T13:30:38.473Z,1.00
2022-10-07T13:33:25.068Z,1.00
2022-10-07T13:36:07.117Z,1.00
2022-10-07T13:38:36.389Z,1.00
2022-10-07T13:41:09.207Z,1.00
2022-10-07T13:43:38.741Z,1.00
2022-10-07T13:46:10.611Z,1.00
2022-10-07T13:48:45.767Z,1.00
2022-10-07T13:51:26.036Z,1.00
2022-10-07T13:53:59.895Z,1.00
2022-10-07T13:56:31.918Z,1.00
2022-10-07T13:59:02.194Z,1.00
2022-10-07T14:01:32.773Z,1.00
2022-10-07T14:04:21.786Z,1.00
2022-10-07T14:06:53.814Z,1.00
2022-10-07T14:09:26.430Z,1.00
2022-10-07T14:11:58.822Z,1.00
2022-10-07T14:14:35.642Z,1.00
2022-10-07T14:17:11.016Z,1.00
2022-10-07T14:19:40.694Z,1.00
2022-10-07T14:22:20.860Z,1.00
2022-10-07T14:24:58.336Z,1.00
2022-10-07T14:28:10.195Z,1.00
2022-10-07T14:30:56.881Z,1.00
2022-10-07T14:33:56.276Z,1.00
2022-10-07T14:36:24.689Z,1.00
2022-10-07T14:38:55.088Z,1.00
2022-10-07T14:41:24.662Z,1.00
2022-10-07T14:43:54.500Z,1.00
2022-10-07T14:46:26.205Z,1.00
2022-10-07T14:48:56.145Z,1.00
2022-10-07T14:51:27.284Z,1.00
2022-10-07T14:54:02.989Z,1.00
2022-10-07T14:56:33.871Z,1.00
2022-10-07T14:59:02.714Z,1.00
2022-10-07T15:01:32.791Z,1.00
2022-10-07T15:04:01.992Z,1.00
2022-10-07T15:06:31.535Z,1.00
2022-10-07T15:09:00.572Z,1.00
2022-10-07T15:11:29.648Z,1.00
2022-10-07T15:13:58.472Z,1.00
2022-10-07T15:16:29.153Z,1.00
2022-10-07T15:18:59.326Z,1.00
2022-10-07T15:21:29.435Z,1.00
2022-10-07T15:24:02.006Z,1.00
2022-10-07T15:26:31.375Z,1.00
2022-10-07T15:29:01.838Z,1.00
2022-10-07T15:31:32.569Z,1.00
2022-10-07T15:34:03.754Z,1.00
2022-10-07T15:36:33.465Z,1.00
2022-10-07T15:39:03.156Z,1.00
2022-10-07T15:41:34.623Z,1.00
2022-10-07T15:44:06.045Z,1.00
2022-10-07T15:46:35.175Z,1.00
2022-10-07T15:49:05.632Z,1.00
2022-10-07T15:51:36.494Z,8.20
2022-10-07T15:54:07.088Z,16.50
2022-10-07T15:56:36.000Z,20.80
2022-10-07T15:59:04.921Z,20.80
2022-10-07T16:01:34.495Z,28.60
2022-10-07T16:04:06.308Z,32.00
2022-10-07T16:06:36.955Z,39.70
2022-10-07T16:09:05.905Z,40.00
2022-10-07T16:11:35.684Z,44.60
2022-10-07T16:14:04.613Z,54.10
2022-10-07T16:16:34.067Z,63.30
2022-10-07T16:19:13.198Z,56.20
2022-10-07T16:22:18.618Z,56.90
2022-10-07T16:25:02.201Z,64.30
2022-10-07T16:27:48.368Z,73.10
2022-10-07T16:30:56.725Z,84.20
2022-10-07T16:36:57.125Z,97.60
2022-10-07T16:39:31.885Z,99.90
2022-10-07T16:42:10.472Z,99.90
2022-10-07T16:44:42.005Z,99.90
2022-10-07T16:47:14.294Z,99.90
2022-10-07T16:49:44.784Z,99.90
2022-10-07T16:52:14.482Z,99.90
2022-10-07T16:54:43.829Z,99.90
2022-10-07T16:57:12.078Z,99.90
2022-10-07T16:59:42.923Z,99.90
2022-10-07T17:02:11.516Z,99.90
2022-10-07T17:04:42.059Z,99.90
2022-10-07T17:07:10.159Z,99.90
2022-10-07T17:09:40.249Z,99.90
2022-10-07T17:12:09.137Z,99.90
2022-10-07T17:14:38.682Z,99.90
2022-10-07T17:17:09.192Z,99.90
2022-10-07T17:19:37.632Z,99.90
2022-10-07T17:22:06.466Z,99.90
2022-10-07T17:24:35.674Z,99.90
2022-10-07T17:27:08.822Z,99.90
2022-10-07T17:29:38.726Z,99.90
2022-10-07T17:32:10.298Z,99.90
2022-10-07T17:34:43.137Z,99.90
2022-10-07T17:37:16.883Z,99.90
2022-10-07T17:39:45.001Z,99.90
2022-10-07T17:42:15.471Z,99.90
2022-10-07T17:44:43.538Z,99.90
2022-10-07T17:47:12.498Z,99.90
2022-10-07T17:49:41.049Z,99.90
2022-10-07T17:52:09.290Z,99.90
2022-10-07T17:54:39.212Z,99.90
2022-10-07T17:57:07.427Z,99.90
2022-10-07T17:59:38.697Z,99.90
2022-10-07T18:02:08.576Z,99.90
2022-10-07T18:04:38.620Z,99.90
2022-10-07T18:07:06.708Z,99.90
2022-10-07T18:09:35.119Z,99.90
2022-10-07T18:12:23.450Z,99.90
2022-10-07T18:15:10.867Z,99.90
2022-10-07T18:17:39.743Z,99.90
2022-10-07T18:20:14.995Z,99.90
2022-10-07T18:22:45.731Z,99.90
2022-10-07T18:25:15.458Z,99.90
2022-10-07T18:27:43.732Z,99.90
2022-10-07T18:30:14.843Z,99.90
2022-10-07T18:32:43.477Z,99.90
2022-10-07T18:35:12.028Z,99.90
2022-10-07T18:37:40.504Z,99.90
2022-10-07T18:40:09.582Z,99.90
2022-10-07T18:42:39.123Z,99.90
2022-10-07T18:45:08.005Z,99.90
2022-10-07T18:47:38.740Z,99.90
2022-10-07T18:50:07.899Z,99.90
2022-10-07T18:52:36.200Z,99.90
2022-10-07T18:55:05.159Z,99.90
2022-10-07T18:57:33.992Z,99.90
2022-10-07T19:00:02.195Z,99.90
2022-10-07T19:02:32.770Z,99.90
2022-10-07T19:05:02.537Z,99.90
2022-10-07T19:07:31.415Z,99.90
2022-10-07T19:10:01.081Z,99.90
2022-10-07T19:12:46.792Z,99.90
2022-10-07T19:15:15.325Z,99.90
2022-10-07T19:17:44.028Z,99.90
2022-10-07T19:20:14.028Z,99.90
2022-10-07T19:22:43.653Z,99.90
2022-10-07T19:25:30.913Z,99.90
2022-10-07T19:27:59.439Z,99.90
2022-10-07T19:30:28.172Z,99.90
2022-10-07T19:32:59.596Z,99.90
2022-10-07T19:35:30.198Z,99.90
2022-10-07T19:38:06.613Z,99.90
2022-10-07T19:40:39.760Z,99.90
2022-10-07T19:43:10.880Z,99.90
2022-10-07T19:45:40.190Z,99.90
2022-10-07T19:48:14.338Z,99.90
2022-10-07T19:50:46.186Z,99.90
2022-10-07T19:53:15.446Z,99.90
2022-10-07T19:55:46.470Z,99.90
2022-10-07T19:58:15.073Z,99.90
2022-10-07T20:00:46.770Z,99.90
2022-10-07T20:03:15.223Z,99.90
2022-10-07T20:05:44.740Z,99.90
2022-10-07T20:08:14.617Z,99.90
2022-10-07T20:10:45.959Z,99.90
2022-10-07T20:13:17.754Z,99.90
2022-10-07T20:15:46.070Z,99.90
2022-10-07T20:18:14.950Z,99.90
2022-10-07T20:20:45.463Z,99.90
2022-10-07T20:23:14.390Z,99.90
2022-10-07T20:25:43.896Z,99.90
2022-10-07T20:28:12.291Z,99.90
2022-10-07T20:30:40.853Z,99.90
2022-10-07T20:33:09.159Z,99.90
2022-10-07T20:35:40.380Z,99.90
2022-10-07T20:38:09.814Z,99.90
2022-10-07T20:40:55.585Z,99.90
2022-10-07T20:43:23.817Z,99.90
2022-10-07T20:45:58.013Z,99.90
2022-10-07T20:48:29.064Z,99.90
2022-10-07T20:50:57.161Z,99.90
2022-10-07T20:53:28.238Z,99.90
2022-10-07T20:55:57.190Z,99.90
2022-10-07T20:58:25.653Z,99.90
2022-10-07T21:00:54.128Z,99.90
2022-10-07T21:03:24.081Z,99.90
2022-10-07T21:05:57.154Z,99.90
2022-10-07T21:08:26.952Z,99.90
2022-10-07T21:11:03.953Z,99.90
2022-10-07T21:13:35.355Z,99.90
2022-10-07T21:16:07.811Z,99.90
2022-10-07T21:18:37.541Z,99.90
2022-10-07T21:21:06.681Z,99.90
2022-10-07T21:23:36.348Z,99.90
2022-10-07T21:26:07.212Z,99.90
2022-10-07T21:28:37.930Z,99.90
2022-10-07T21:31:08.618Z,99.90
2022-10-07T21:33:39.932Z,99.90
2022-10-07T21:36:15.396Z,99.90
2022-10-07T21:38:48.932Z,99.90
2022-10-07T21:41:20.760Z,99.90
2022-10-07T21:43:51.160Z,99.90
2022-10-07T21:46:21.295Z,99.90
2022-10-07T21:48:50.630Z,99.90
2022-10-07T21:51:19.459Z,99.90
2022-10-07T21:53:57.803Z,99.90
2022-10-07T21:56:29.323Z,99.90
2022-10-07T21:59:00.777Z,99.90
2022-10-07T22:01:29.854Z,99.90
2022-10-07T22:03:59.876Z,99.90
2022-10-07T22:06:46.960Z,99.90
2022-10-07T22:09:21.054Z,99.90
2022-10-07T22:11:50.662Z,99.90
2022-10-07T22:14:20.604Z,99.90
2022-10-07T22:16:50.046Z,99.90
2022-10-07T22:19:18.721Z,99.90
2022-10-07T22:21:48.182Z,99.90
2022-10-07T22:24:18.466Z,99.90
2022-10-07T22:26:51.194Z,99.90
2022-10-07T22:29:21.832Z,99.90
2022-10-07T22:31:52.037Z,99.90
2022-10-07T22:34:38.209Z,99.90
2022-10-07T22:37:07.455Z,99.90
2022-10-07T22:39:38.046Z,99.90
2022-10-07T22:42:08.742Z,99.90
2022-10-07T22:44:37.517Z,99.90
2022-10-07T22:47:06.141Z,99.90
2022-10-07T22:49:34.563Z,99.90
2022-10-07T22:52:03.120Z,99.90
2022-10-07T22:54:31.629Z,99.90
2022-10-07T22:57:06.510Z,99.90
2022-10-07T22:59:34.903Z,99.90
2022-10-07T23:02:03.737Z,99.90
2022-10-07T23:04:34.407Z,99.90
2022-10-07T23:07:03.561Z,99.90
2022-10-07T23:09:31.909Z,99.90
2022-10-07T23:12:02.285Z,99.90
2022-10-07T23:14:31.952Z,99.90
2022-10-07T23:17:00.738Z,99.90
2022-10-07T23:19:31.561Z,99.90
2022-10-07T23:22:00.347Z,99.90
2022-10-07T23:24:29.619Z,99.90
2022-10-07T23:26:58.567Z,99.90
2022-10-07T23:29:31.237Z,99.90
2022-10-07T23:31:59.850Z,99.90
2022-10-07T23:34:29.018Z,99.90
2022-10-07T23:36:57.408Z,99.90
2022-10-07T23:39:25.850Z,99.90
2022-10-07T23:41:55.138Z,99.90
2022-10-07T23:44:24.784Z,99.90
2022-10-07T23:46:55.494Z,99.90
2022-10-07T23:49:24.737Z,99.90
2022-10-07T23:51:55.073Z,99.90
2022-10-07T23:54:24.105Z,99.90
2022-10-07T23:56:52.465Z,99.90
2022-10-07T23:59:22.104Z,99.90
